Time;durP1;ratioP1;P1;durP2;ratioP2;P2;SDS_P1;SDS_P2;PMS_P1;PMS_P2;Temp;Humidity;BMP_temperature;BMP_pressure;BME280_temperature;BME280_humidity;BME280_pressure;Samples;Min_cycle;Max_cycle;Signal;HPM_P1;HPM_P2
2021/07/04 00:01:41;;;;;;;10.50;6.03;;;;;;;;;;6215673;23;20004;-46
2021/07/04 00:04:07;;;;;;;7.32;5.70;;;;;;;;;;6215217;23;20357;-46
2021/07/04 00:06:33;;;;;;;8.55;5.80;;;;;;;;;;6215510;23;20142;-47
2021/07/04 00:08:59;;;;;;;8.27;6.22;;;;;;;;;;6215142;23;20001;-46
2021/07/04 00:11:25;;;;;;;6.78;5.18;;;;;;;;;;6215800;23;20001;-46
2021/07/04 00:13:51;;;;;;;6.55;4.82;;;;;;;;;;6215047;23;20015;-48
2021/07/04 00:16:17;;;;;;;9.15;5.88;;;;;;;;;;6215741;23;20012;-47
2021/07/04 00:18:43;;;;;;;7.03;5.28;;;;;;;;;;6215161;23;20001;-47
2021/07/04 00:21:09;;;;;;;7.65;5.10;;;;;;;;;;6215582;23;20058;-51
2021/07/04 00:23:36;;;;;;;7.70;5.15;;;;;;;;;;6215518;23;20005;-46
2021/07/04 00:26:02;;;;;;;10.02;5.57;;;;;;;;;;6215671;23;20131;-48
2021/07/04 00:28:28;;;;;;;7.20;5.68;;;;;;;;;;6214768;23;20409;-47
2021/07/04 00:30:55;;;;;;;7.07;5.15;;;;;;;;;;6215559;23;20001;-46
2021/07/04 00:33:21;;;;;;;8.60;5.30;;;;;;;;;;6215219;23;20435;-50
2021/07/04 00:35:47;;;;;;;7.60;5.45;;;;;;;;;;6215524;23;20534;-46
2021/07/04 00:38:13;;;;;;;7.68;5.43;;;;;;;;;;6215032;23;20036;-46
2021/07/04 00:40:40;;;;;;;8.27;5.50;;;;;;;;;;6215065;23;20011;-46
2021/07/04 00:43:07;;;;;;;8.90;6.05;;;;;;;;;;6215272;23;20079;-46
2021/07/04 00:45:33;;;;;;;5.80;5.03;;;;;;;;;;6215201;23;20460;-47
2021/07/04 00:47:59;;;;;;;7.68;5.03;;;;;;;;;;6214782;23;19996;-47
2021/07/04 00:50:26;;;;;;;9.73;5.43;;;;;;;;;;6214981;23;20090;-46
2021/07/04 00:52:53;;;;;;;7.53;5.78;;;;;;;;;;6215593;23;20011;-47
2021/07/04 00:55:19;;;;;;;6.88;5.47;;;;;;;;;;6214963;23;20728;-46
2021/07/04 00:57:46;;;;;;;9.52;4.85;;;;;;;;;;6214787;23;20007;-47
2021/07/04 01:00:13;;;;;;;9.27;5.70;;;;;;;;;;6215033;23;20440;-51
2021/07/04 01:02:39;;;;;;;9.00;6.10;;;;;;;;;;6214776;23;20434;-50
2021/07/04 01:05:10;;;;;;;9.32;6.13;;;;;;;;;;6215108;23;20409;-51
2021/07/04 01:07:36;;;;;;;8.35;5.78;;;;;;;;;;6214287;23;20008;-49
2021/07/04 01:10:02;;;;;;;7.82;6.55;;;;;;;;;;6214987;23;20019;-52
2021/07/04 01:12:28;;;;;;;8.10;5.70;;;;;;;;;;6215335;23;20004;-49
2021/07/04 01:14:54;;;;;;;12.55;6.45;;;;;;;;;;6214526;23;20478;-48
2021/07/04 01:17:20;;;;;;;7.65;5.28;;;;;;;;;;6215236;23;20007;-49
2021/07/04 01:19:46;;;;;;;10.45;5.45;;;;;;;;;;6214743;23;20010;-48
2021/07/04 01:22:13;;;;;;;8.27;5.90;;;;;;;;;;6215461;23;20010;-48
2021/07/04 01:24:39;;;;;;;9.50;6.53;;;;;;;;;;6214974;23;20032;-48
2021/07/04 01:27:05;;;;;;;9.10;5.80;;;;;;;;;;6214853;23;20028;-48
2021/07/04 01:29:31;;;;;;;11.60;6.15;;;;;;;;;;6214190;23;20369;-49
2021/07/04 01:31:57;;;;;;;7.40;5.88;;;;;;;;;;6214824;23;20004;-53
2021/07/04 01:34:23;;;;;;;8.13;5.93;;;;;;;;;;6214219;23;20007;-52
2021/07/04 01:36:49;;;;;;;9.75;5.82;;;;;;;;;;6214580;23;20008;-50
2021/07/04 01:39:15;;;;;;;7.57;5.65;;;;;;;;;;6214196;23;20036;-48
2021/07/04 01:41:41;;;;;;;8.30;6.00;;;;;;;;;;6214861;23;20074;-49
2021/07/04 01:44:07;;;;;;;10.43;6.43;;;;;;;;;;6214463;23;20428;-53
2021/07/04 01:46:33;;;;;;;7.47;5.20;;;;;;;;;;6214842;23;20003;-50
2021/07/04 01:48:59;;;;;;;8.00;5.80;;;;;;;;;;6214199;23;20329;-48
2021/07/04 01:51:25;;;;;;;8.68;5.55;;;;;;;;;;6214528;23;20000;-48
2021/07/04 01:53:51;;;;;;;10.25;6.47;;;;;;;;;;6214477;23;20709;-49
2021/07/04 01:56:17;;;;;;;8.40;6.05;;;;;;;;;;6214432;23;20000;-48
2021/07/04 01:58:43;;;;;;;9.40;6.30;;;;;;;;;;6214287;23;20004;-48
2021/07/04 02:01:09;;;;;;;7.35;6.03;;;;;;;;;;6214704;23;20027;-48
2021/07/04 02:03:35;;;;;;;6.65;5.85;;;;;;;;;;6214494;23;20012;-49
2021/07/04 02:06:03;;;;;;;7.03;5.75;;;;;;;;;;6214557;23;20294;-49
2021/07/04 02:08:29;;;;;;;7.70;6.13;;;;;;;;;;6214430;23;20007;-53
2021/07/04 02:10:55;;;;;;;8.80;6.38;;;;;;;;;;6214697;23;20000;-52
2021/07/04 02:13:21;;;;;;;11.73;6.60;;;;;;;;;;6214480;23;20008;-48
2021/07/04 02:15:47;;;;;;;9.85;6.55;;;;;;;;;;6214262;23;20001;-51
2021/07/04 02:18:14;;;;;;;9.98;6.68;;;;;;;;;;6214059;23;20012;-50
2021/07/04 02:20:47;;;;;;;10.20;6.53;;;;;;;;;;6214341;23;20001;-50
2021/07/04 02:23:13;;;;;;;9.07;6.85;;;;;;;;;;6214525;23;20368;-48
2021/07/04 02:25:40;;;;;;;7.18;5.82;;;;;;;;;;6214677;23;20005;-49
2021/07/04 02:28:07;;;;;;;10.60;7.00;;;;;;;;;;6213785;23;20084;-48
2021/07/04 02:30:34;;;;;;;7.93;6.32;;;;;;;;;;6214275;23;20043;-48
2021/07/04 02:33:03;;;;;;;8.95;6.38;;;;;;;;;;6214087;23;20025;-48
2021/07/04 02:35:32;;;;;;;8.20;6.28;;;;;;;;;;6214165;23;20075;-49
2021/07/04 02:37:58;;;;;;;10.38;6.53;;;;;;;;;;6186927;23;20405;-50
2021/07/04 02:40:25;;;;;;;7.78;6.28;;;;;;;;;;6214475;23;20000;-50
2021/07/04 02:42:51;;;;;;;6.75;5.65;;;;;;;;;;6214355;23;20013;-50
2021/07/04 02:45:17;;;;;;;10.07;6.53;;;;;;;;;;6215285;23;20004;-48
2021/07/04 02:47:43;;;;;;;7.20;5.82;;;;;;;;;;6217070;23;20016;-50
2021/07/04 02:50:10;;;;;;;8.07;6.53;;;;;;;;;;6217503;23;20302;-53
2021/07/04 02:52:36;;;;;;;7.97;5.88;;;;;;;;;;6217947;23;20530;-49
2021/07/04 02:55:04;;;;;;;7.85;6.05;;;;;;;;;;6217966;23;20000;-48
2021/07/04 02:57:30;;;;;;;7.45;6.28;;;;;;;;;;6217375;23;20007;-48
2021/07/04 02:59:56;;;;;;;8.90;7.03;;;;;;;;;;6217091;23;20004;-48
2021/07/04 03:02:22;;;;;;;8.70;6.30;;;;;;;;;;6216865;23;20059;-49
2021/07/04 03:04:48;;;;;;;7.22;6.05;;;;;;;;;;6217586;23;20004;-48
2021/07/04 03:07:14;;;;;;;6.32;5.45;;;;;;;;;;6190711;23;20372;-48
2021/07/04 03:09:42;;;;;;;10.95;6.95;;;;;;;;;;6217191;23;20083;-48
2021/07/04 03:12:08;;;;;;;7.60;6.32;;;;;;;;;;6217310;23;20039;-48
2021/07/04 03:14:34;;;;;;;6.82;6.13;;;;;;;;;;6217334;23;20000;-49
2021/07/04 03:17:00;;;;;;;8.43;6.50;;;;;;;;;;6217237;23;20477;-49
2021/07/04 03:19:26;;;;;;;8.73;6.30;;;;;;;;;;6217670;23;20079;-48
2021/07/04 03:21:52;;;;;;;9.90;6.68;;;;;;;;;;6217815;23;20000;-49
2021/07/04 03:24:18;;;;;;;10.85;6.53;;;;;;;;;;6217374;23;20004;-52
2021/07/04 03:26:43;;;;;;;10.32;6.75;;;;;;;;;;6217648;23;20047;-50
2021/07/04 03:29:09;;;;;;;8.32;6.10;;;;;;;;;;6216644;23;20059;-49
2021/07/04 03:31:35;;;;;;;9.77;6.40;;;;;;;;;;6217188;23;20410;-50
2021/07/04 03:34:01;;;;;;;7.55;6.07;;;;;;;;;;6216940;23;20012;-49
2021/07/04 03:36:27;;;;;;;9.52;6.88;;;;;;;;;;6217142;23;19997;-51
2021/07/04 03:38:53;;;;;;;8.25;6.50;;;;;;;;;;6217028;23;20001;-49
2021/07/04 03:41:19;;;;;;;10.50;6.05;;;;;;;;;;6217451;23;20021;-48
2021/07/04 03:43:45;;;;;;;7.47;6.15;;;;;;;;;;6217087;23;20008;-48
2021/07/04 03:46:11;;;;;;;7.95;6.32;;;;;;;;;;6217359;23;20000;-48
2021/07/04 03:48:37;;;;;;;7.38;5.78;;;;;;;;;;6216973;23;19997;-49
2021/07/04 03:51:03;;;;;;;10.73;6.32;;;;;;;;;;6217606;23;20083;-51
2021/07/04 03:53:29;;;;;;;9.52;7.10;;;;;;;;;;6217141;23;20011;-50
2021/07/04 03:55:55;;;;;;;8.75;6.22;;;;;;;;;;6217224;23;20005;-48
2021/07/04 03:58:21;;;;;;;7.97;6.60;;;;;;;;;;6214925;23;20409;-48
2021/07/04 04:00:48;;;;;;;8.43;6.53;;;;;;;;;;6215677;23;20007;-49
2021/07/04 04:03:14;;;;;;;10.40;6.03;;;;;;;;;;6216514;23;20011;-51
2021/07/04 04:05:39;;;;;;;8.05;6.20;;;;;;;;;;6215463;23;20043;-49
2021/07/04 04:08:07;;;;;;;8.07;6.43;;;;;;;;;;6214879;23;20005;-51
2021/07/04 04:10:33;;;;;;;8.45;5.88;;;;;;;;;;6215961;23;20086;-48
2021/07/04 04:12:59;;;;;;;8.18;5.93;;;;;;;;;;6189421;23;19997;-48
2021/07/04 04:15:25;;;;;;;8.30;6.15;;;;;;;;;;6215303;23;20023;-48
2021/07/04 04:17:53;;;;;;;8.73;6.07;;;;;;;;;;6215325;23;20012;-48
2021/07/04 04:20:19;;;;;;;7.68;5.72;;;;;;;;;;6215837;23;20564;-48
2021/07/04 04:22:45;;;;;;;8.98;5.93;;;;;;;;;;6215671;23;19996;-48
2021/07/04 04:25:11;;;;;;;7.38;5.93;;;;;;;;;;6214869;23;20011;-48
2021/07/04 04:27:37;;;;;;;7.18;5.50;;;;;;;;;;6215446;23;20008;-49
2021/07/04 04:30:04;;;;;;;8.27;5.63;;;;;;;;;;6215276;23;20409;-49
2021/07/04 04:32:30;;;;;;;10.90;6.38;;;;;;;;;;6215807;23;20008;-48
2021/07/04 04:34:56;;;;;;;11.20;5.85;;;;;;;;;;6215406;23;20028;-49
2021/07/04 04:37:23;;;;;;;7.43;6.10;;;;;;;;;;6215298;23;20476;-53
2021/07/04 04:39:49;;;;;;;8.23;5.70;;;;;;;;;;6214897;23;20000;-51
2021/07/04 04:42:15;;;;;;;9.85;5.95;;;;;;;;;;6215580;23;20051;-52
2021/07/04 04:44:41;;;;;;;11.05;5.93;;;;;;;;;;6215189;23;20425;-50
2021/07/04 04:47:07;;;;;;;7.03;5.47;;;;;;;;;;6215333;23;19996;-49
2021/07/04 04:49:34;;;;;;;7.15;5.40;;;;;;;;;;6214883;23;20009;-48
2021/07/04 04:52:00;;;;;;;9.65;6.25;;;;;;;;;;6215263;23;20074;-48
2021/07/04 04:54:26;;;;;;;7.15;5.72;;;;;;;;;;6214959;23;20031;-48
2021/07/04 04:56:52;;;;;;;7.93;6.22;;;;;;;;;;6214962;23;20004;-50
2021/07/04 04:59:18;;;;;;;7.40;5.68;;;;;;;;;;6214751;23;20309;-50
2021/07/04 05:01:44;;;;;;;8.25;6.22;;;;;;;;;;6214873;23;20036;-48
2021/07/04 05:04:10;;;;;;;9.27;5.32;;;;;;;;;;6215018;23;20019;-49
2021/07/04 05:06:36;;;;;;;7.28;5.72;;;;;;;;;;6215301;23;19997;-49
2021/07/04 05:09:03;;;;;;;7.43;5.72;;;;;;;;;;6214208;23;20005;-48
2021/07/04 05:11:29;;;;;;;9.27;6.30;;;;;;;;;;6215090;23;20004;-51
2021/07/04 05:13:55;;;;;;;8.18;5.72;;;;;;;;;;6215018;23;20005;-52
2021/07/04 05:16:21;;;;;;;11.38;5.88;;;;;;;;;;6214698;23;20083;-49
2021/07/04 05:18:47;;;;;;;8.32;5.90;;;;;;;;;;6214759;23;20039;-51
2021/07/04 05:21:13;;;;;;;7.15;5.53;;;;;;;;;;6214869;23;20005;-48
2021/07/04 05:23:39;;;;;;;7.35;5.60;;;;;;;;;;6214540;23;20004;-53
2021/07/04 05:26:05;;;;;;;6.93;5.88;;;;;;;;;;6214397;23;20004;-48
2021/07/04 05:28:31;;;;;;;9.43;5.57;;;;;;;;;;6214602;23;20001;-49
2021/07/04 05:30:57;;;;;;;8.57;6.32;;;;;;;;;;6215004;23;20420;-49
2021/07/04 05:33:23;;;;;;;7.22;6.03;;;;;;;;;;6214556;23;20079;-49
2021/07/04 05:35:50;;;;;;;10.05;6.43;;;;;;;;;;6215205;23;20445;-48
2021/07/04 05:38:20;;;;;;;8.15;6.18;;;;;;;;;;6214145;23;20004;-49
2021/07/04 05:40:47;;;;;;;7.53;6.13;;;;;;;;;;6214818;23;20051;-48
2021/07/04 05:43:14;;;;;;;7.00;5.90;;;;;;;;;;6214927;23;20314;-50
2021/07/04 05:45:40;;;;;;;8.32;5.97;;;;;;;;;;6214861;23;20072;-50
2021/07/04 05:48:06;;;;;;;7.78;6.20;;;;;;;;;;6214408;23;20382;-49
2021/07/04 05:50:32;;;;;;;9.60;6.78;;;;;;;;;;6214659;23;20479;-55
2021/07/04 05:52:58;;;;;;;8.65;6.32;;;;;;;;;;6214278;23;20004;-53
2021/07/04 05:55:24;;;;;;;8.73;6.63;;;;;;;;;;6213992;23;20005;-52
2021/07/04 05:57:50;;;;;;;9.02;6.68;;;;;;;;;;6213961;23;20004;-52
2021/07/04 06:00:16;;;;;;;8.00;6.30;;;;;;;;;;6214508;23;20041;-51
2021/07/04 06:02:42;;;;;;;9.05;7.00;;;;;;;;;;6213532;23;20058;-53
2021/07/04 06:05:09;;;;;;;13.07;6.38;;;;;;;;;;6214717;23;20087;-50
2021/07/04 06:07:35;;;;;;;9.63;6.63;;;;;;;;;;6215245;23;20055;-50
2021/07/04 06:10:02;;;;;;;8.15;5.90;;;;;;;;;;6213968;23;20094;-49
2021/07/04 06:12:28;;;;;;;8.13;5.75;;;;;;;;;;6214209;23;20024;-48
2021/07/04 06:14:54;;;;;;;9.23;7.20;;;;;;;;;;6214350;23;20015;-50
2021/07/04 06:17:20;;;;;;;6.72;5.60;;;;;;;;;;6214514;23;20004;-49
2021/07/04 06:19:52;;;;;;;8.73;5.90;;;;;;;;;;6213866;23;20069;-51
2021/07/04 06:22:18;;;;;;;8.63;5.35;;;;;;;;;;6213758;23;20032;-49
2021/07/04 06:24:44;;;;;;;6.50;4.63;;;;;;;;;;6213770;23;20439;-49
2021/07/04 06:27:10;;;;;;;9.75;5.70;;;;;;;;;;6214800;23;19996;-53
2021/07/04 06:29:39;;;;;;;7.03;4.43;;;;;;;;;;6213606;23;20302;-51
2021/07/04 06:32:05;;;;;;;6.90;4.30;;;;;;;;;;6214148;23;20393;-54
2021/07/04 06:34:31;;;;;;;4.10;3.22;;;;;;;;;;6212980;23;20741;-51
2021/07/04 06:36:57;;;;;;;3.88;3.08;;;;;;;;;;6213942;23;20005;-51
2021/07/04 06:39:23;;;;;;;4.60;3.35;;;;;;;;;;6213709;23;20009;-53
2021/07/04 06:41:49;;;;;;;5.30;3.72;;;;;;;;;;6213512;23;20005;-51
2021/07/04 06:44:15;;;;;;;4.57;3.17;;;;;;;;;;6213422;23;20337;-48
2021/07/04 06:46:41;;;;;;;4.63;3.55;;;;;;;;;;6214028;23;20252;-49
2021/07/04 06:49:07;;;;;;;9.23;3.70;;;;;;;;;;6213192;23;20012;-49
2021/07/04 06:51:33;;;;;;;5.78;3.65;;;;;;;;;;6214459;23;20001;-49
2021/07/04 06:53:59;;;;;;;4.93;3.40;;;;;;;;;;6213199;23;20434;-49
2021/07/04 06:56:25;;;;;;;6.97;3.60;;;;;;;;;;6214504;23;20523;-48
2021/07/04 06:58:51;;;;;;;4.22;3.40;;;;;;;;;;6213729;23;20000;-49
2021/07/04 07:01:17;;;;;;;4.20;3.58;;;;;;;;;;6214094;23;20005;-49
2021/07/04 07:03:43;;;;;;;6.00;4.13;;;;;;;;;;6214202;23;20011;-52
2021/07/04 07:06:09;;;;;;;6.15;3.92;;;;;;;;;;6214329;23;19997;-50
2021/07/04 07:08:35;;;;;;;4.85;3.80;;;;;;;;;;6213255;23;20001;-49
2021/07/04 07:11:01;;;;;;;5.32;4.03;;;;;;;;;;6214257;23;20444;-51
2021/07/04 07:13:27;;;;;;;7.00;3.80;;;;;;;;;;6213836;23;20011;-48
2021/07/04 07:15:53;;;;;;;4.85;3.55;;;;;;;;;;6213603;23;20005;-53
2021/07/04 07:18:19;;;;;;;7.32;3.35;;;;;;;;;;6213623;23;20056;-48
2021/07/04 07:20:45;;;;;;;6.88;4.07;;;;;;;;;;6213692;23;20004;-51
2021/07/04 07:23:11;;;;;;;4.53;2.85;;;;;;;;;;6213796;23;20005;-52
2021/07/04 07:25:37;;;;;;;5.75;3.60;;;;;;;;;;6213819;23;20028;-49
2021/07/04 07:28:04;;;;;;;4.03;3.08;;;;;;;;;;6213026;23;19996;-49
2021/07/04 07:30:30;;;;;;;5.63;3.22;;;;;;;;;;6214206;23;20313;-49
2021/07/04 07:32:56;;;;;;;5.07;2.88;;;;;;;;;;6215117;23;20032;-54
2021/07/04 07:35:22;;;;;;;4.93;2.47;;;;;;;;;;6215842;23;20008;-48
2021/07/04 07:37:50;;;;;;;3.63;2.50;;;;;;;;;;6215285;23;20028;-54
2021/07/04 07:40:16;;;;;;;5.78;2.90;;;;;;;;;;6215643;23;20071;-55
2021/07/04 07:42:42;;;;;;;3.92;2.95;;;;;;;;;;6215268;23;20325;-54
2021/07/04 07:45:09;;;;;;;3.88;2.85;;;;;;;;;;6215273;23;20000;-50
2021/07/04 07:47:36;;;;;;;3.70;2.63;;;;;;;;;;6214947;23;20001;-48
2021/07/04 07:50:03;;;;;;;2.97;2.45;;;;;;;;;;6215175;23;20023;-49
2021/07/04 07:52:30;;;;;;;3.67;3.00;;;;;;;;;;6214625;23;20000;-51
2021/07/04 07:54:56;;;;;;;3.60;2.53;;;;;;;;;;6215259;23;20008;-50
2021/07/04 07:57:22;;;;;;;5.15;2.35;;;;;;;;;;6215886;23;20062;-49
2021/07/04 07:59:49;;;;;;;7.82;3.00;;;;;;;;;;6214571;23;20005;-48
2021/07/04 08:02:15;;;;;;;5.28;2.67;;;;;;;;;;6215474;23;20009;-50
2021/07/04 08:04:41;;;;;;;4.57;2.92;;;;;;;;;;6214301;23;20349;-49
2021/07/04 08:07:07;;;;;;;4.47;2.55;;;;;;;;;;6214737;23;20091;-49
2021/07/04 08:09:33;;;;;;;4.72;2.78;;;;;;;;;;6214892;23;20005;-50
2021/07/04 08:11:59;;;;;;;4.53;2.70;;;;;;;;;;6214994;23;20007;-48
2021/07/04 08:14:25;;;;;;;4.70;2.38;;;;;;;;;;6215245;23;20630;-49
2021/07/04 08:16:51;;;;;;;5.88;3.10;;;;;;;;;;6215323;23;20000;-52
2021/07/04 08:19:17;;;;;;;4.13;3.33;;;;;;;;;;6215086;23;20005;-49
2021/07/04 08:21:43;;;;;;;4.15;2.92;;;;;;;;;;6215196;23;20004;-48
2021/07/04 08:24:09;;;;;;;4.30;3.00;;;;;;;;;;6215348;23;20005;-49
2021/07/04 08:26:35;;;;;;;4.80;2.47;;;;;;;;;;6214777;23;20054;-49
2021/07/04 08:29:01;;;;;;;4.13;3.00;;;;;;;;;;6214623;23;20396;-50
2021/07/04 08:31:28;;;;;;;3.97;2.60;;;;;;;;;;6215334;23;20008;-49
2021/07/04 08:33:54;;;;;;;4.47;2.83;;;;;;;;;;6215220;23;20005;-50
2021/07/04 08:36:20;;;;;;;6.60;2.90;;;;;;;;;;6214659;23;20005;-48
2021/07/04 08:38:47;;;;;;;3.78;2.42;;;;;;;;;;6215097;23;20348;-50
2021/07/04 08:41:13;;;;;;;3.40;2.70;;;;;;;;;;6214917;23;20008;-49
2021/07/04 08:43:39;;;;;;;4.53;2.75;;;;;;;;;;6214931;23;20004;-48
2021/07/04 08:46:06;;;;;;;10.60;2.78;;;;;;;;;;6215027;23;20540;-49
2021/07/04 08:48:33;;;;;;;2.72;2.35;;;;;;;;;;6214561;23;20004;-48
2021/07/04 08:50:59;;;;;;;4.90;2.53;;;;;;;;;;6214923;23;20016;-52
2021/07/04 08:53:25;;;;;;;4.15;2.45;;;;;;;;;;6214730;23;20005;-48
2021/07/04 08:55:51;;;;;;;5.15;2.70;;;;;;;;;;6215122;23;20008;-49
2021/07/04 08:58:21;;;;;;;4.25;2.60;;;;;;;;;;6214542;23;20072;-49
2021/07/04 09:01:07;;;;;;;6.38;2.42;;;;;;;;;;6214218;23;20067;-50
2021/07/04 09:03:33;;;;;;;5.78;2.90;;;;;;;;;;6214668;23;20057;-48
2021/07/04 09:05:59;;;;;;;4.40;2.75;;;;;;;;;;6215533;23;19992;-51
2021/07/04 09:08:25;;;;;;;3.80;2.65;;;;;;;;;;6213832;23;20072;-50
2021/07/04 09:11:10;;;;;;;7.38;2.65;;;;;;;;;;6214408;23;20004;-49
2021/07/04 09:13:37;;;;;;;3.95;2.60;;;;;;;;;;6214338;23;20008;-50
2021/07/04 09:16:07;;;;;;;3.88;2.70;;;;;;;;;;6214285;23;20413;-53
2021/07/04 09:18:33;;;;;;;4.13;2.78;;;;;;;;;;6213707;23;20012;-54
2021/07/04 09:21:00;;;;;;;4.38;3.08;;;;;;;;;;6214121;23;20087;-49
2021/07/04 09:23:36;;;;;;;5.00;3.03;;;;;;;;;;6213736;23;20059;-53
2021/07/04 09:26:03;;;;;;;5.03;2.88;;;;;;;;;;6213256;23;20512;-49
2021/07/04 09:28:30;;;;;;;5.15;2.75;;;;;;;;;;6212392;23;20068;-55
2021/07/04 09:30:58;;;;;;;5.25;3.03;;;;;;;;;;6213958;23;20080;-50
2021/07/04 09:33:32;;;;;;;5.03;2.88;;;;;;;;;;6214363;23;20352;-50
2021/07/04 09:36:01;;;;;;;4.80;2.92;;;;;;;;;;6214164;23;20005;-52
2021/07/04 09:38:46;;;;;;;6.57;3.22;;;;;;;;;;6213557;23;20501;-50
2021/07/04 09:41:13;;;;;;;4.35;2.05;;;;;;;;;;6214054;23;20032;-49
2021/07/04 09:43:40;;;;;;;5.78;2.42;;;;;;;;;;6213548;23;20004;-49
2021/07/04 09:46:07;;;;;;;3.92;2.88;;;;;;;;;;6213817;23;20051;-49
2021/07/04 09:48:46;;;;;;;3.53;2.70;;;;;;;;;;6212755;23;20036;-48
2021/07/04 09:51:23;;;;;;;6.47;3.00;;;;;;;;;;6184135;23;20075;-48
2021/07/04 09:53:50;;;;;;;5.07;2.30;;;;;;;;;;6184347;23;20009;-51
2021/07/04 09:56:22;;;;;;;5.30;2.47;;;;;;;;;;6183457;23;20284;-48
2021/07/04 09:58:49;;;;;;;4.80;2.67;;;;;;;;;;6183954;23;20329;-49
2021/07/04 10:01:32;;;;;;;4.32;2.88;;;;;;;;;;6183271;23;20012;-50
2021/07/04 10:03:58;;;;;;;3.05;2.45;;;;;;;;;;6183914;23;20425;-52
2021/07/04 10:06:24;;;;;;;6.00;3.47;;;;;;;;;;6184460;23;20084;-53
2021/07/04 10:08:50;;;;;;;3.50;2.75;;;;;;;;;;6183080;23;20124;-50
2021/07/04 10:11:16;;;;;;;3.05;2.40;;;;;;;;;;6182689;23;20306;-52
2021/07/04 10:13:44;;;;;;;5.00;3.00;;;;;;;;;;6183127;23;20004;-49
2021/07/04 10:16:11;;;;;;;4.78;2.72;;;;;;;;;;6184565;23;20587;-48
2021/07/04 10:18:37;;;;;;;3.55;2.95;;;;;;;;;;6183830;23;20016;-50
2021/07/04 10:21:04;;;;;;;3.67;2.65;;;;;;;;;;6184704;23;20024;-51
2021/07/04 10:23:30;;;;;;;3.17;2.65;;;;;;;;;;6184116;23;20029;-48
2021/07/04 10:25:57;;;;;;;5.38;2.63;;;;;;;;;;6184028;23;20076;-49
2021/07/04 10:28:43;;;;;;;8.57;3.13;;;;;;;;;;6183438;23;20001;-52
2021/07/04 10:31:11;;;;;;;4.72;2.78;;;;;;;;;;6183574;23;20409;-49
2021/07/04 10:33:38;;;;;;;4.20;2.92;;;;;;;;;;6183501;23;20062;-50
2021/07/04 10:36:09;;;;;;;4.18;2.90;;;;;;;;;;6184169;23;20317;-49
2021/07/04 10:38:37;;;;;;;3.70;2.80;;;;;;;;;;6184031;23;20021;-52
2021/07/04 10:41:13;;;;;;;4.22;2.72;;;;;;;;;;6183599;23;20037;-49
2021/07/04 10:43:57;;;;;;;3.50;2.83;;;;;;;;;;6184113;23;20381;-51
2021/07/04 10:46:42;;;;;;;4.65;3.20;;;;;;;;;;6184033;23;20001;-49
2021/07/04 10:49:11;;;;;;;3.92;2.67;;;;;;;;;;6189907;23;20511;-50
2021/07/04 10:51:58;;;;;;;4.35;2.90;;;;;;;;;;6214368;23;20445;-49
2021/07/04 10:54:45;;;;;;;3.60;3.15;;;;;;;;;;6213124;23;20067;-49
2021/07/04 10:57:16;;;;;;;5.80;3.33;;;;;;;;;;6214305;23;20398;-49
2021/07/04 11:02:41;;;;;;;3.22;2.80;;;;;;;;;;6213436;23;20091;-49
2021/07/04 11:05:11;;;;;;;4.03;3.63;;;;;;;;;;6213187;23;20092;-48
2021/07/04 11:07:52;;;;;;;5.18;3.10;;;;;;;;;;6215345;23;20055;-49
2021/07/04 11:10:20;;;;;;;5.38;2.83;;;;;;;;;;6216072;23;20001;-51
2021/07/04 11:12:46;;;;;;;4.35;2.75;;;;;;;;;;6216571;23;20455;-49
2021/07/04 11:15:15;;;;;;;4.00;3.17;;;;;;;;;;6215509;23;20016;-49
2021/07/04 11:17:59;;;;;;;4.53;3.05;;;;;;;;;;6215468;23;20441;-49
2021/07/04 11:20:33;;;;;;;8.55;3.50;;;;;;;;;;6215204;23;20322;-50
2021/07/04 11:23:01;;;;;;;4.22;3.13;;;;;;;;;;6215941;23;20023;-50
2021/07/04 11:25:38;;;;;;;4.25;3.20;;;;;;;;;;6215900;23;20004;-50
2021/07/04 11:28:16;;;;;;;4.18;2.78;;;;;;;;;;6215384;23;20012;-49
2021/07/04 11:30:42;;;;;;;5.68;2.97;;;;;;;;;;6215959;23;20068;-49
2021/07/04 11:33:21;;;;;;;5.97;3.15;;;;;;;;;;6215737;23;20000;-48
2021/07/04 11:35:47;;;;;;;4.38;3.38;;;;;;;;;;6214680;23;19997;-49
2021/07/04 11:38:16;;;;;;;4.57;2.88;;;;;;;;;;6215189;23;20144;-49
2021/07/04 11:40:44;;;;;;;3.08;2.58;;;;;;;;;;6215730;23;20028;-49
2021/07/04 11:43:13;;;;;;;3.70;2.90;;;;;;;;;;6215889;23;20001;-51
2021/07/04 11:45:39;;;;;;;5.53;2.85;;;;;;;;;;6215610;23;20088;-49
2021/07/04 11:48:06;;;;;;;4.30;2.97;;;;;;;;;;6215155;23;20322;-48
2021/07/04 11:50:44;;;;;;;3.30;3.00;;;;;;;;;;6215084;23;20020;-49
2021/07/04 11:53:10;;;;;;;3.92;3.03;;;;;;;;;;6215504;23;20046;-52
2021/07/04 11:55:55;;;;;;;4.13;2.53;;;;;;;;;;6215768;23;20000;-50
2021/07/04 11:58:25;;;;;;;4.00;2.60;;;;;;;;;;6215409;23;20009;-50
2021/07/04 12:00:51;;;;;;;3.45;2.40;;;;;;;;;;6215777;23;20000;-49
2021/07/04 12:03:22;;;;;;;3.33;2.45;;;;;;;;;;6215812;23;20005;-49
2021/07/04 12:05:48;;;;;;;4.82;3.00;;;;;;;;;;6215898;23;20001;-49
2021/07/04 12:08:14;;;;;;;3.55;2.70;;;;;;;;;;6215235;23;20015;-49
2021/07/04 12:10:47;;;;;;;3.80;2.92;;;;;;;;;;6214632;23;20313;-50
2021/07/04 12:13:13;;;;;;;4.78;2.78;;;;;;;;;;6215226;23;20448;-49
2021/07/04 12:15:39;;;;;;;4.75;2.90;;;;;;;;;;6215030;23;20001;-51
2021/07/04 12:18:15;;;;;;;2.53;2.03;;;;;;;;;;6214373;23;20008;-49
2021/07/04 12:20:41;;;;;;;3.03;2.28;;;;;;;;;;6215189;23;20397;-51
2021/07/04 12:23:12;;;;;;;3.65;2.60;;;;;;;;;;6215432;23;20008;-49
2021/07/04 12:25:41;;;;;;;3.75;2.20;;;;;;;;;;6213922;23;20001;-49
2021/07/04 12:28:08;;;;;;;6.40;2.50;;;;;;;;;;6214325;23;20001;-51
2021/07/04 12:30:36;;;;;;;3.20;2.65;;;;;;;;;;6215516;23;20028;-49
2021/07/04 12:33:08;;;;;;;3.20;2.35;;;;;;;;;;6215343;23;20039;-49
2021/07/04 12:35:38;;;;;;;3.53;2.50;;;;;;;;;;6215000;23;20000;-50
2021/07/04 12:38:06;;;;;;;3.75;2.70;;;;;;;;;;6214738;23;20012;-50
2021/07/04 12:40:34;;;;;;;4.65;2.20;;;;;;;;;;6215607;23;20314;-51
2021/07/04 12:43:10;;;;;;;3.25;2.58;;;;;;;;;;6215664;23;20009;-49
2021/07/04 12:45:37;;;;;;;3.50;2.22;;;;;;;;;;6215666;23;20302;-49
2021/07/04 12:48:04;;;;;;;3.35;2.28;;;;;;;;;;6214703;23;20032;-49
2021/07/04 12:50:38;;;;;;;3.58;2.80;;;;;;;;;;6215233;23;20016;-49
2021/07/04 12:53:04;;;;;;;3.05;2.38;;;;;;;;;;6215270;23;20000;-51
2021/07/04 12:55:37;;;;;;;2.55;2.00;;;;;;;;;;6215047;23;20019;-49
2021/07/04 12:58:03;;;;;;;;;;;;;;;;;;6215019;23;20004;-49
2021/07/04 13:00:33;;;;;;;3.75;2.70;;;;;;;;;;6214363;23;19994;-53
2021/07/04 13:02:58;;;;;;;3.78;2.53;;;;;;;;;;6215058;23;20007;-49
2021/07/04 13:05:37;;;;;;;5.47;2.65;;;;;;;;;;6214687;23;20001;-49
2021/07/04 13:08:10;;;;;;;4.38;2.58;;;;;;;;;;6215041;23;20008;-49
2021/07/04 13:10:36;;;;;;;3.47;2.30;;;;;;;;;;6215030;23;19996;-49
2021/07/04 13:13:09;;;;;;;5.63;2.00;;;;;;;;;;6214565;23;20009;-49
2021/07/04 13:15:35;;;;;;;5.50;1.95;;;;;;;;;;6215341;23;20005;-50
2021/07/04 13:18:01;;;;;;;2.83;1.80;;;;;;;;;;6214135;23;20069;-50
2021/07/04 13:20:28;;;;;;;2.45;1.75;;;;;;;;;;6214546;23;20695;-50
2021/07/04 13:22:56;;;;;;;2.78;1.80;;;;;;;;;;6215139;23;19996;-50
2021/07/04 13:25:29;;;;;;;3.33;1.90;;;;;;;;;;6214478;23;20306;-50
2021/07/04 13:27:58;;;;;;;3.00;1.80;;;;;;;;;;6213695;23;20004;-51
2021/07/04 13:30:24;;;;;;;3.85;1.98;;;;;;;;;;6214202;23;20000;-49
2021/07/04 13:32:59;;;;;;;3.13;1.92;;;;;;;;;;6214933;23;19997;-49
2021/07/04 13:35:30;;;;;;;2.58;2.15;;;;;;;;;;6215341;23;20008;-50
2021/07/04 13:37:58;;;;;;;3.03;1.88;;;;;;;;;;6214300;23;20040;-50
2021/07/04 13:40:24;;;;;;;2.22;1.83;;;;;;;;;;6214684;23;20433;-51
2021/07/04 13:42:53;;;;;;;3.33;1.85;;;;;;;;;;6214908;23;20372;-49
2021/07/04 13:45:27;;;;;;;2.22;1.90;;;;;;;;;;6214293;23;20005;-50
2021/07/04 13:47:54;;;;;;;6.07;2.13;;;;;;;;;;6214276;23;20011;-49
2021/07/04 13:50:21;;;;;;;3.20;2.63;;;;;;;;;;6214583;23;20135;-50
2021/07/04 13:52:47;;;;;;;2.75;2.00;;;;;;;;;;6213853;23;19996;-49
2021/07/04 13:55:13;;;;;;;3.53;2.17;;;;;;;;;;6214203;23;20008;-51
2021/07/04 13:57:39;;;;;;;2.88;2.13;;;;;;;;;;6214022;23;20005;-49
2021/07/04 14:00:06;;;;;;;3.42;2.10;;;;;;;;;;6214258;23;20050;-52
2021/07/04 14:02:32;;;;;;;2.75;1.98;;;;;;;;;;6213983;23;20036;-49
2021/07/04 14:04:58;;;;;;;3.83;1.77;;;;;;;;;;6214683;23;20007;-50
2021/07/04 14:07:24;;;;;;;3.78;2.05;;;;;;;;;;6214096;23;20004;-51
2021/07/04 14:09:50;;;;;;;3.47;1.80;;;;;;;;;;6213920;23;20000;-49
2021/07/04 14:12:16;;;;;;;5.35;1.83;;;;;;;;;;6214369;23;20409;-50
2021/07/04 14:14:42;;;;;;;5.70;1.83;;;;;;;;;;6213490;23;20095;-53
2021/07/04 14:17:08;;;;;;;2.00;1.60;;;;;;;;;;6214964;23;20079;-52
2021/07/04 14:19:35;;;;;;;2.10;1.70;;;;;;;;;;6213650;23;20013;-51
2021/07/04 14:22:02;;;;;;;2.45;1.60;;;;;;;;;;6214736;23;20004;-49
2021/07/04 14:24:28;;;;;;;5.55;1.70;;;;;;;;;;6213689;23;20012;-49
2021/07/04 14:26:54;;;;;;;3.60;1.85;;;;;;;;;;6214991;23;20058;-51
2021/07/04 14:29:21;;;;;;;2.25;1.73;;;;;;;;;;6213827;23;20000;-49
2021/07/04 14:31:47;;;;;;;3.38;1.63;;;;;;;;;;6214126;23;20003;-49
2021/07/04 14:34:13;;;;;;;2.25;1.80;;;;;;;;;;6214219;23;20012;-52
2021/07/04 14:36:39;;;;;;;2.50;1.73;;;;;;;;;;6214471;23;20310;-50
2021/07/04 14:39:06;;;;;;;3.28;2.10;;;;;;;;;;6213662;23;20001;-51
2021/07/04 14:41:33;;;;;;;2.88;2.20;;;;;;;;;;6214077;23;20009;-52
2021/07/04 14:43:59;;;;;;;2.10;1.70;;;;;;;;;;6214058;23;20012;-49
2021/07/04 14:46:25;;;;;;;3.55;2.08;;;;;;;;;;6214249;23;20004;-52
2021/07/04 14:48:51;;;;;;;4.53;2.22;;;;;;;;;;6213673;23;20000;-50